Time;durP1;ratioP1;P1;durP2;ratioP2;P2;SDS_P1;SDS_P2;PMS_P1;PMS_P2;Temp;Humidity;BMP_temperature;BMP_pressure;BME280_temperature;BME280_humidity;BME280_pressure;Samples;Min_cycle;Max_cycle;Signal;HPM_P1;HPM_P2
2022/06/04 00:00:24;;;;;;;21.33;7.13;;;12.60;99.90;;;;;;5068600;28;20511;-69
2022/06/04 00:02:50;;;;;;;17.00;6.38;;;12.70;99.90;;;;;;5068158;28;20090;-70
2022/06/04 00:05:31;;;;;;;15.50;6.50;;;12.60;99.90;;;;;;5062931;28;20064;-70
2022/06/04 00:07:59;;;;;;;12.90;6.88;;;12.60;99.90;;;;;;5060915;28;20156;-70
2022/06/04 00:16:07;;;;;;;14.52;7.30;;;12.60;99.90;;;;;;5068373;28;20573;-70
2022/06/04 00:18:33;;;;;;;15.30;7.00;;;12.60;99.90;;;;;;5068618;28;20486;-69
2022/06/04 00:20:59;;;;;;;14.77;7.38;;;12.60;99.90;;;;;;5066471;28;20040;-69
2022/06/04 00:23:26;;;;;;;15.43;7.60;;;12.70;99.90;;;;;;5067518;28;20374;-69
2022/06/04 00:25:54;;;;;;;19.10;7.82;;;12.50;99.90;;;;;;5068238;28;20083;-69
2022/06/04 00:28:21;;;;;;;18.52;7.88;;;12.50;99.90;;;;;;5068024;28;20508;-69
2022/06/04 00:30:48;;;;;;;14.07;7.55;;;13.00;99.90;;;;;;5067384;28;20059;-69
2022/06/04 00:33:15;;;;;;;17.60;8.02;;;12.60;99.90;;;;;;5067749;28;20083;-70
2022/06/04 00:35:42;;;;;;;18.75;8.00;;;12.60;99.90;;;;;;5050471;28;20044;-70
2022/06/04 00:38:08;;;;;;;16.55;7.85;;;12.60;99.90;;;;;;5067339;28;20036;-69
2022/06/04 00:40:47;;;;;;;19.00;8.55;;;12.50;99.90;;;;;;5068681;28;20538;-69
2022/06/04 00:43:13;;;;;;;16.70;8.00;;;12.50;99.90;;;;;;5067623;28;20062;-70
2022/06/04 00:46:16;;;;;;;16.65;8.55;;;12.50;99.90;;;;;;5070149;28;20123;-70
2022/06/04 00:48:42;;;;;;;20.50;8.77;;;12.40;99.90;;;;;;5068186;28;20044;-70
2022/06/04 00:51:08;;;;;;;16.10;8.27;;;12.80;99.90;;;;;;5079012;28;20512;-69
2022/06/04 00:53:35;;;;;;;14.68;8.43;;;12.40;99.90;;;;;;5050666;28;20044;-70
2022/06/04 00:56:03;;;;;;;18.05;8.82;;;12.40;99.90;;;;;;5055578;28;20041;-70
2022/06/04 00:59:24;;;;;;;15.20;8.23;;;12.40;99.90;;;;;;5067077;28;20541;-69
2022/06/04 01:02:02;;;;;;;13.80;8.07;;;12.30;99.90;;;;;;5053010;28;20335;-70
2022/06/04 01:05:09;;;;;;;14.73;7.93;;;12.30;99.90;;;;;;5050494;28;20328;-69
2022/06/04 01:08:16;;;;;;;21.35;8.80;;;12.30;99.90;;;;;;5068685;28;20048;-70
2022/06/04 01:10:50;;;;;;;;;;;12.30;99.90;;;;;;5069191;28;20044;-69
2022/06/04 01:13:25;;;;;;;14.23;7.80;;;12.30;99.90;;;;;;5067078;28;20303;-69
2022/06/04 01:16:12;;;;;;;19.73;8.48;;;12.20;99.90;;;;;;5067441;28;20040;-69
2022/06/04 01:18:44;;;;;;;18.90;8.15;;;12.30;99.90;;;;;;5065822;28;20087;-69
2022/06/04 01:22:08;;;;;;;16.70;8.20;;;12.20;99.90;;;;;;5066413;28;20047;-70
2022/06/04 01:24:36;;;;;;;19.35;8.57;;;12.20;99.90;;;;;;5045819;28;20037;-70
2022/06/04 01:27:21;;;;;;;17.80;8.30;;;12.10;99.90;;;;;;5054603;28;20049;-70
2022/06/04 01:29:49;;;;;;;16.38;8.15;;;12.10;99.90;;;;;;5068783;28;20075;-71
2022/06/04 01:32:35;;;;;;;15.77;8.50;;;12.10;99.90;;;;;;5067510;28;20049;-70
2022/06/04 01:35:17;;;;;;;14.30;7.60;;;12.10;99.90;;;;;;5063024;28;20423;-70
2022/06/04 01:37:53;;;;;;;17.77;8.35;;;12.10;99.90;;;;;;5067776;28;20052;-70
2022/06/04 01:43:22;;;;;;;20.95;7.75;;;12.00;99.90;;;;;;5065855;28;20496;-70
2022/06/04 01:45:50;;;;;;;14.65;8.15;;;12.00;99.90;;;;;;5064901;28;20048;-70
2022/06/04 01:48:18;;;;;;;17.02;8.23;;;12.00;99.90;;;;;;5045646;28;20116;-70
2022/06/04 01:50:50;;;;;;;18.00;8.30;;;12.60;99.90;;;;;;5067340;28;20111;-70
2022/06/04 01:53:18;;;;;;;16.90;7.90;;;12.60;99.90;;;;;;5065825;28;20029;-69
2022/06/04 01:55:53;;;;;;;15.13;7.65;;;11.90;99.90;;;;;;5067056;28;20127;-70
2022/06/04 01:58:25;;;;;;;14.05;7.82;;;12.70;99.90;;;;;;5067344;28;20401;-70
2022/06/04 02:01:01;;;;;;;19.25;8.18;;;12.40;99.90;;;;;;5066751;28;20084;-70
2022/06/04 02:03:36;;;;;;;18.15;7.88;;;12.20;99.90;;;;;;5066594;28;20486;-70
2022/06/04 02:06:12;;;;;;;16.90;7.70;;;12.70;99.90;;;;;;5067418;28;20041;-70
2022/06/04 02:09:01;;;;;;;14.80;7.88;;;11.80;99.90;;;;;;5064933;28;20052;-70
2022/06/04 02:11:29;;;;;;;15.00;7.95;;;11.90;99.90;;;;;;5057641;28;20493;-70
2022/06/04 02:13:58;;;;;;;17.15;8.52;;;11.80;99.90;;;;;;5066359;28;20159;-70
2022/06/04 02:16:39;;;;;;;17.45;7.75;;;11.80;99.90;;;;;;5058045;28;20394;-70
2022/06/04 02:19:05;;;;;;;15.35;8.70;;;11.80;99.90;;;;;;5046602;28;20048;-70
2022/06/04 02:21:32;;;;;;;13.30;7.82;;;11.90;99.90;;;;;;5066586;28;20125;-70
2022/06/04 02:23:59;;;;;;;15.38;8.25;;;11.80;99.90;;;;;;5065587;28;20509;-69
2022/06/04 02:26:25;;;;;;;15.30;8.25;;;11.80;99.90;;;;;;5066146;28;20136;-69
2022/06/04 02:28:52;;;;;;;12.00;7.55;;;12.20;99.90;;;;;;5066056;28;20113;-69
2022/06/04 02:31:32;;;;;;;14.60;7.47;;;11.80;99.90;;;;;;5066416;28;20045;-70
2022/06/04 02:34:23;;;;;;;15.65;8.23;;;12.10;99.90;;;;;;5065913;28;20387;-70
2022/06/04 02:37:14;;;;;;;12.88;7.85;;;11.90;99.90;;;;;;5052904;28;20075;-70
2022/06/04 02:39:48;;;;;;;15.13;7.68;;;11.90;99.90;;;;;;5066846;28;20430;-69
2022/06/04 02:42:34;;;;;;;14.80;7.68;;;11.90;99.90;;;;;;5067123;28;20040;-70
2022/06/04 02:45:25;;;;;;;12.60;7.18;;;11.90;99.90;;;;;;5065435;28;20044;-70
2022/06/04 02:48:10;;;;;;;14.15;7.38;;;11.90;99.90;;;;;;5069558;28;20059;-70
2022/06/04 02:50:41;;;;;;;14.20;7.47;;;11.90;99.90;;;;;;5069868;28;20047;-72
2022/06/04 02:53:09;;;;;;;16.08;7.50;;;11.90;99.90;;;;;;5070756;28;20049;-70
2022/06/04 02:55:47;;;;;;;14.07;7.90;;;12.00;99.90;;;;;;5069181;28;20044;-69
2022/06/04 02:58:16;;;;;;;16.00;8.15;;;12.00;99.90;;;;;;5070084;28;20102;-70
2022/06/04 03:00:43;;;;;;;16.25;7.57;;;12.00;99.90;;;;;;5070169;28;20053;-70
2022/06/04 03:03:13;;;;;;;14.95;7.68;;;12.50;99.90;;;;;;5068822;28;20127;-70
2022/06/04 03:05:51;;;;;;;13.90;7.10;;;12.10;99.90;;;;;;5065012;28;20045;-72
2022/06/04 03:08:16;;;;;;;11.90;6.95;;;12.00;99.90;;;;;;5069166;28;20111;-70
2022/06/04 03:10:42;;;;;;;13.60;6.88;;;12.10;99.90;;;;;;5067793;28;20541;-70
2022/06/04 03:13:08;;;;;;;13.00;6.43;;;12.10;99.90;;;;;;5069593;28;20051;-69
2022/06/04 03:15:34;;;;;;;10.82;6.43;;;12.10;99.90;;;;;;5068106;28;20123;-69
2022/06/04 03:17:59;;;;;;;10.93;6.32;;;12.10;99.90;;;;;;5057063;28;20044;-69
2022/06/04 03:20:27;;;;;;;12.43;6.28;;;12.10;99.90;;;;;;5069883;28;20040;-69
2022/06/04 03:22:54;;;;;;;10.60;5.70;;;12.10;99.90;;;;;;5070300;28;20045;-70
2022/06/04 03:25:20;;;;;;;11.68;5.93;;;12.10;99.90;;;;;;5070891;28;20040;-69
2022/06/04 03:27:46;;;;;;;13.25;6.25;;;12.80;99.90;;;;;;5069099;28;20327;-70
2022/06/04 03:30:13;;;;;;;12.18;5.72;;;12.70;99.90;;;;;;5069901;28;20589;-69
2022/06/04 03:32:39;;;;;;;9.85;5.30;;;12.00;99.90;;;;;;5070185;28;20386;-69
2022/06/04 03:35:05;;;;;;;11.60;5.15;;;12.10;99.90;;;;;;5069272;28;20322;-70
2022/06/04 03:37:32;;;;;;;9.85;5.43;;;12.00;99.90;;;;;;5073060;28;20047;-69
2022/06/04 03:39:58;;;;;;;11.35;5.18;;;13.00;99.90;;;;;;5069912;28;20119;-70
2022/06/04 03:42:23;;;;;;;10.50;5.60;;;12.00;99.90;;;;;;5070622;28;20083;-69
2022/06/04 03:44:49;;;;;;;9.48;4.80;;;12.00;99.90;;;;;;5069687;28;20493;-70
2022/06/04 03:47:17;;;;;;;9.77;5.18;;;12.60;99.90;;;;;;5069032;28;20385;-70
2022/06/04 03:49:46;;;;;;;10.13;5.00;;;11.90;99.90;;;;;;5070393;28;20041;-70
2022/06/04 03:52:13;;;;;;;7.95;4.82;;;11.90;99.90;;;;;;5070187;28;20114;-70
2022/06/04 03:54:56;;;;;;;10.18;5.20;;;12.00;99.90;;;;;;5065386;28;20111;-70
2022/06/04 03:57:41;;;;;;;8.60;4.93;;;11.90;99.90;;;;;;5068592;28;20059;-70
2022/06/04 04:00:36;;;;;;;10.30;4.68;;;11.90;99.90;;;;;;5065514;28;20124;-70
2022/06/04 04:03:05;;;;;;;10.43;4.97;;;11.90;99.90;;;;;;5061513;28;20049;-70
2022/06/04 04:05:35;;;;;;;9.05;5.20;;;11.90;99.90;;;;;;5072168;28;20070;-70
2022/06/04 04:08:05;;;;;;;8.68;4.38;;;11.90;99.90;;;;;;5070438;28;20465;-70
2022/06/04 04:10:31;;;;;;;8.23;4.40;;;11.90;99.90;;;;;;5070723;28;20384;-70
2022/06/04 04:12:58;;;;;;;7.60;4.70;;;11.90;99.90;;;;;;5069603;28;20044;-70
2022/06/04 04:15:24;;;;;;;9.18;4.78;;;12.00;99.90;;;;;;5067643;28;20040;-70
2022/06/04 04:17:50;;;;;;;8.05;4.95;;;12.20;99.90;;;;;;5068783;28;20064;-70
2022/06/04 04:20:26;;;;;;;8.00;4.90;;;11.90;99.90;;;;;;5069741;28;20373;-70
2022/06/04 04:22:52;;;;;;;;;;;12.00;99.90;;;;;;5068750;28;20137;-70
2022/06/04 04:25:20;;;;;;;8.70;4.72;;;12.00;99.90;;;;;;5069521;28;19934;-70
2022/06/04 04:27:46;;;;;;;9.27;5.25;;;12.00;99.90;;;;;;5069393;28;20101;-70
2022/06/04 04:30:15;;;;;;;10.00;4.80;;;11.90;99.90;;;;;;5050534;28;20055;-70
2022/06/04 04:32:41;;;;;;;10.60;5.18;;;12.00;99.90;;;;;;5068767;28;20074;-70
2022/06/04 04:35:12;;;;;;;8.25;5.03;;;12.70;99.90;;;;;;5067234;28;20050;-70
2022/06/04 04:37:37;;;;;;;10.48;4.97;;;12.30;99.90;;;;;;5068229;28;20642;-70
2022/06/04 04:40:04;;;;;;;9.00;5.10;;;12.00;99.90;;;;;;5069030;28;20085;-70
2022/06/04 04:42:29;;;;;;;8.07;4.82;;;12.00;99.90;;;;;;5049868;28;20051;-70
2022/06/04 04:44:55;;;;;;;7.60;4.65;;;12.00;99.90;;;;;;5068120;28;20032;-70
2022/06/04 04:47:21;;;;;;;10.32;4.80;;;12.00;99.90;;;;;;5068789;28;20048;-70
2022/06/04 04:49:46;;;;;;;8.32;4.60;;;12.10;99.90;;;;;;5084368;28;20036;-69
2022/06/04 04:52:13;;;;;;;11.52;4.78;;;12.10;99.90;;;;;;5068024;28;20048;-70
2022/06/04 04:54:38;;;;;;;10.48;4.75;;;12.50;99.90;;;;;;5068282;28;20125;-70
2022/06/04 04:57:04;;;;;;;8.70;4.85;;;12.20;99.90;;;;;;5050712;28;20129;-70
2022/06/04 04:59:30;;;;;;;9.43;4.63;;;12.20;99.90;;;;;;5067698;28;20041;-70
2022/06/04 05:01:55;;;;;;;7.00;4.90;;;13.00;99.90;;;;;;5067100;28;20110;-70
2022/06/04 05:04:22;;;;;;;13.40;5.50;;;12.30;99.90;;;;;;5067765;28;20136;-70
2022/06/04 05:06:47;;;;;;;8.52;5.00;;;12.30;99.90;;;;;;5069862;28;20056;-70
2022/06/04 05:09:14;;;;;;;10.90;5.32;;;12.40;99.90;;;;;;5067781;28;20052;-70
2022/06/04 05:11:40;;;;;;;9.55;4.82;;;12.60;99.90;;;;;;5068161;28;20056;-71
2022/06/04 05:14:06;;;;;;;10.55;5.25;;;12.50;99.90;;;;;;5067008;28;20037;-70
2022/06/04 05:16:36;;;;;;;9.88;5.10;;;12.40;99.90;;;;;;5064908;28;20485;-70
2022/06/04 05:19:02;;;;;;;10.35;5.43;;;12.40;99.90;;;;;;5067755;28;20044;-70
2022/06/04 05:21:48;;;;;;;6.93;4.47;;;12.40;99.90;;;;;;5068539;28;20051;-71
2022/06/04 05:24:23;;;;;;;10.90;5.20;;;12.60;99.90;;;;;;5068254;28;20412;-71
2022/06/04 05:26:50;;;;;;;9.52;5.13;;;12.50;99.90;;;;;;5068064;28;20036;-70
2022/06/04 05:29:16;;;;;;;7.88;4.97;;;12.70;99.90;;;;;;5067794;28;20045;-70
2022/06/04 05:31:42;;;;;;;9.48;5.20;;;12.60;99.90;;;;;;5067158;28;20055;-71
2022/06/04 05:34:09;;;;;;;8.88;4.90;;;12.70;99.90;;;;;;5067487;28;20467;-71
2022/06/04 05:36:36;;;;;;;8.80;5.05;;;12.70;99.90;;;;;;5066622;28;20040;-71
2022/06/04 05:39:04;;;;;;;7.57;5.10;;;12.70;99.90;;;;;;5068409;28;20044;-71
2022/06/04 05:41:30;;;;;;;10.25;5.82;;;12.80;99.90;;;;;;5067854;28;20115;-71
2022/06/04 05:43:55;;;;;;;8.20;4.97;;;12.80;99.90;;;;;;5065951;28;20044;-71
2022/06/04 05:46:22;;;;;;;9.18;5.10;;;12.90;99.90;;;;;;5068390;28;20409;-71
2022/06/04 05:48:48;;;;;;;10.43;5.10;;;13.00;99.90;;;;;;5067702;28;20052;-71
2022/06/04 05:51:20;;;;;;;9.98;5.65;;;14.20;99.90;;;;;;5066226;28;20454;-68
2022/06/04 05:53:48;;;;;;;8.45;4.80;;;13.60;99.90;;;;;;5067005;28;20049;-71
2022/06/04 05:56:23;;;;;;;7.53;4.82;;;13.10;99.90;;;;;;5068224;28;20087;-70
2022/06/04 05:58:51;;;;;;;8.30;4.90;;;13.10;99.90;;;;;;5070407;28;20052;-71
2022/06/04 06:01:20;;;;;;;9.80;5.13;;;13.20;99.90;;;;;;5068687;28;20095;-71
2022/06/04 06:03:46;;;;;;;10.30;5.22;;;13.40;99.90;;;;;;5049661;28;20084;-71
2022/06/04 06:06:19;;;;;;;9.48;5.00;;;13.40;99.90;;;;;;5054639;28;20391;-71
2022/06/04 06:08:45;;;;;;;8.57;5.15;;;13.50;99.90;;;;;;5047927;28;20516;-70
2022/06/04 06:11:13;;;;;;;7.57;5.32;;;14.10;99.90;;;;;;5048216;28;20037;-71
2022/06/04 06:13:40;;;;;;;10.82;5.93;;;13.50;99.90;;;;;;5048579;28;20045;-71
2022/06/04 06:16:08;;;;;;;8.27;4.80;;;13.60;99.90;;;;;;5048640;28;20151;-71
2022/06/04 06:18:34;;;;;;;7.90;4.72;;;13.70;99.90;;;;;;5051111;28;20036;-71
2022/06/04 06:21:08;;;;;;;9.82;5.10;;;13.80;99.90;;;;;;5068509;28;20416;-71
2022/06/04 06:23:34;;;;;;;8.10;5.07;;;13.70;99.90;;;;;;5070344;28;20037;-71
2022/06/04 06:26:04;;;;;;;9.52;5.07;;;13.90;99.90;;;;;;5090389;28;20044;-71
2022/06/04 06:28:30;;;;;;;8.02;4.57;;;13.90;99.90;;;;;;5073921;28;20080;-71
2022/06/04 06:30:56;;;;;;;7.80;4.85;;;14.30;99.90;;;;;;5086160;28;20134;-71
2022/06/04 06:33:21;;;;;;;7.97;4.65;;;15.00;99.90;;;;;;5070975;28;20149;-71
2022/06/04 06:35:58;;;;;;;7.20;4.35;;;14.80;99.90;;;;;;5070545;28;20048;-71
2022/06/04 06:38:24;;;;;;;7.50;4.75;;;14.20;99.90;;;;;;5071360;28;20071;-72
2022/06/04 06:40:52;;;;;;;7.82;4.65;;;14.30;99.90;;;;;;5072283;28;20373;-71
2022/06/04 06:43:18;;;;;;;7.05;4.40;;;14.30;99.90;;;;;;5069935;28;20058;-71
2022/06/04 06:45:44;;;;;;;7.93;4.65;;;14.40;99.90;;;;;;5070503;28;20466;-71
2022/06/04 06:48:10;;;;;;;8.00;4.43;;;14.40;99.90;;;;;;5069562;28;20114;-71
2022/06/04 06:50:36;;;;;;;10.30;5.05;;;14.30;99.90;;;;;;5069387;28;20037;-71
2022/06/04 06:53:03;;;;;;;8.32;4.60;;;14.40;99.90;;;;;;5071476;28;20040;-71
2022/06/04 06:55:29;;;;;;;10.23;4.22;;;14.40;99.90;;;;;;5065858;28;20044;-71
2022/06/04 06:57:54;;;;;;;8.05;4.50;;;14.50;99.90;;;;;;5050615;28;20033;-71
2022/06/04 07:00:20;;;;;;;7.65;4.55;;;14.50;99.90;;;;;;5069635;28;20119;-71
2022/06/04 07:02:46;;;;;;;7.28;4.53;;;14.50;99.90;;;;;;5071223;28;20408;-71
2022/06/04 07:05:12;;;;;;;8.32;4.70;;;14.50;99.90;;;;;;5068607;28;20569;-71
2022/06/04 07:07:38;;;;;;;8.18;4.63;;;14.50;99.90;;;;;;5069590;28;20053;-71
2022/06/04 07:10:04;;;;;;;8.68;4.72;;;14.60;99.90;;;;;;5071190;28;20475;-71
2022/06/04 07:16:04;;;;;;;6.90;4.60;;;14.80;99.90;;;;;;4978375;28;20054;-71
2022/06/04 07:18:30;;;;;;;9.63;4.68;;;15.30;99.90;;;;;;4990587;28;20166;-71
2022/06/04 07:20:55;;;;;;;9.88;4.70;;;15.00;99.90;;;;;;4990543;28;20144;-71
2022/06/04 07:23:21;;;;;;;6.80;4.45;;;15.40;99.90;;;;;;4989745;28;20125;-71
2022/06/04 07:25:47;;;;;;;8.65;4.55;;;15.20;99.90;;;;;;4989365;28;20054;-71
2022/06/04 07:28:14;;;;;;;7.10;4.75;;;15.20;99.90;;;;;;4990644;28;20077;-71
2022/06/04 07:30:40;;;;;;;6.80;4.57;;;15.30;99.90;;;;;;4988882;28;20050;-71
2022/06/04 07:33:06;;;;;;;9.27;4.50;;;15.30;99.90;;;;;;4986430;28;20088;-69
2022/06/04 07:35:32;;;;;;;7.70;4.07;;;15.30;99.90;;;;;;4992458;28;20065;-67
2022/06/04 07:37:58;;;;;;;8.88;4.53;;;15.40;99.90;;;;;;4993773;28;20051;-68
2022/06/04 07:40:24;;;;;;;7.32;4.22;;;15.40;99.90;;;;;;4970650;28;20045;-67
2022/06/04 07:42:50;;;;;;;6.50;4.03;;;15.50;99.90;;;;;;4965383;28;20038;-68
2022/06/04 07:45:15;;;;;;;6.40;3.53;;;15.50;99.90;;;;;;4988499;28;20088;-67
2022/06/04 07:47:41;;;;;;;8.65;3.90;;;15.60;99.90;;;;;;4989654;28;20117;-67
2022/06/04 07:50:12;;;;;;;8.45;4.05;;;15.70;99.90;;;;;;4990207;28;20162;-67
2022/06/04 07:52:37;;;;;;;7.30;4.00;;;15.70;99.90;;;;;;4988404;28;20526;-67
2022/06/04 07:55:06;;;;;;;6.88;4.00;;;15.80;99.90;;;;;;4979672;28;20100;-68
2022/06/04 07:57:33;;;;;;;8.02;3.90;;;15.90;99.90;;;;;;4987499;28;20082;-67
2022/06/04 07:59:59;;;;;;;7.30;3.50;;;15.90;99.90;;;;;;4970698;28;20077;-67
2022/06/04 08:02:25;;;;;;;6.47;3.70;;;17.00;99.90;;;;;;4989357;28;20046;-68
2022/06/04 08:04:53;;;;;;;7.07;3.60;;;16.00;99.90;;;;;;4988057;28;20046;-68
2022/06/04 08:07:23;;;;;;;7.00;3.47;;;16.30;99.90;;;;;;4994848;28;20053;-68
2022/06/04 08:09:49;;;;;;;6.97;3.25;;;16.10;99.90;;;;;;5009496;28;20522;-69
2022/06/04 08:12:18;;;;;;;8.38;3.55;;;16.20;99.90;;;;;;4997962;28;20141;-68
2022/06/04 08:14:45;;;;;;;9.45;3.95;;;16.20;99.90;;;;;;4971074;28;20100;-68
2022/06/04 08:17:12;;;;;;;6.63;3.80;;;16.30;99.90;;;;;;4990011;28;20058;-68
2022/06/04 08:19:39;;;;;;;7.15;3.60;;;16.30;99.90;;;;;;4988585;28;20042;-68
2022/06/04 08:22:05;;;;;;;6.18;3.40;;;16.50;99.90;;;;;;4972080;28;20520;-69
2022/06/04 08:24:31;;;;;;;9.23;3.88;;;16.10;99.90;;;;;;4987427;28;20511;-68
2022/06/04 08:26:58;;;;;;;7.75;3.45;;;16.60;99.90;;;;;;4989340;28;20046;-68
2022/06/04 08:29:30;;;;;;;7.50;3.88;;;16.70;99.90;;;;;;4971408;28;20050;-68
2022/06/04 08:31:56;;;;;;;7.57;3.65;;;16.80;99.90;;;;;;4989401;28;20490;-67
2022/06/04 08:34:22;;;;;;;6.75;3.80;;;16.80;99.90;;;;;;4988343;28;20053;-67
2022/06/04 08:36:47;;;;;;;6.38;3.55;;;16.90;99.90;;;;;;4987502;28;20050;-67
2022/06/04 08:39:13;;;;;;;8.57;3.50;;;17.00;99.90;;;;;;4988598;28;20061;-68
2022/06/04 08:41:46;;;;;;;6.22;3.42;;;17.10;99.90;;;;;;4970799;28;20463;-68
2022/06/04 08:44:36;;;;;;;7.30;3.60;;;17.10;99.90;;;;;;4989081;28;20050;-67
2022/06/04 08:47:20;;;;;;;7.43;3.60;;;17.40;99.90;;;;;;4988604;28;20038;-68
2022/06/04 08:49:58;;;;;;;7.45;3.67;;;17.20;99.90;;;;;;4988617;28;20050;-68
2022/06/04 08:52:35;;;;;;;6.30;3.33;;;17.30;99.90;;;;;;4980786;28;20378;-68
2022/06/04 08:58:19;;;;;;;4.88;3.05;;;17.50;99.90;;;;;;4980275;28;20058;-67
2022/06/04 09:00:58;;;;;;;6.25;3.33;;;17.60;99.90;;;;;;4988011;28;20050;-68
2022/06/04 09:03:43;;;;;;;6.40;3.28;;;17.70;99.90;;;;;;4972169;28;20058;-67
2022/06/04 09:06:27;;;;;;;5.85;3.30;;;17.90;99.90;;;;;;4988656;28;20042;-67
2022/06/04 09:09:04;;;;;;;6.20;3.70;;;18.00;99.90;;;;;;4988579;28;20050;-66
2022/06/04 09:11:54;;;;;;;7.05;3.50;;;18.20;99.90;;;;;;4989426;28;20073;-67
2022/06/04 09:14:33;;;;;;;4.93;3.03;;;18.30;99.90;;;;;;4975306;28;20136;-67
2022/06/04 09:17:09;;;;;;;5.47;3.30;;;18.40;99.90;;;;;;4990118;28;20050;-67
2022/06/04 09:19:36;;;;;;;;;;;18.50;99.90;;;;;;5007825;28;20143;-66
2022/06/04 09:22:10;;;;;;;5.55;3.17;;;18.70;99.90;;;;;;4989769;28;20015;-66
2022/06/04 09:24:37;;;;;;;6.40;3.10;;;18.70;99.90;;;;;;4988590;28;20050;-67
2022/06/04 09:27:07;;;;;;;6.07;2.92;;;18.80;99.90;;;;;;4988505;28;20155;-67
2022/06/04 09:30:08;;;;;;;4.65;3.00;;;18.90;99.90;;;;;;4987858;28;20492;-66
2022/06/04 09:33:01;;;;;;;7.20;3.35;;;19.00;99.90;;;;;;4950423;28;20055;-68
2022/06/04 09:35:30;;;;;;;6.53;3.03;;;18.90;99.90;;;;;;4987349;28;20047;-67
2022/06/04 09:37:56;;;;;;;5.40;3.10;;;18.90;99.90;;;;;;4988154;28;20513;-68
2022/06/04 09:40:31;;;;;;;5.70;3.53;;;19.00;99.90;;;;;;4988167;28;20042;-68
2022/06/04 09:43:15;;;;;;;5.70;3.10;;;19.20;99.90;;;;;;4970395;28;20042;-67
2022/06/04 09:45:49;;;;;;;7.88;3.10;;;19.30;99.90;;;;;;4969830;28;20403;-67
2022/06/04 09:48:22;;;;;;;5.35;2.97;;;19.50;99.90;;;;;;4958725;28;20532;-67
2022/06/04 09:50:54;;;;;;;5.15;2.90;;;19.50;99.90;;;;;;4987764;28;20140;-68
2022/06/04 09:53:29;;;;;;;5.60;2.92;;;19.40;99.90;;;;;;4970521;28;20133;-68
2022/06/04 09:56:07;;;;;;;5.25;2.80;;;19.40;99.90;;;;;;4969346;28;20039;-68
2022/06/04 09:58:36;;;;;;;7.00;3.13;;;19.50;99.90;;;;;;4988888;28;20042;-69
2022/06/04 10:01:08;;;;;;;7.25;3.28;;;19.10;99.90;;;;;;4989356;28;20478;-68
2022/06/04 10:03:37;;;;;;;9.63;3.33;;;19.80;99.90;;;;;;4992726;28;20129;-68
2022/06/04 10:06:06;;;;;;;6.85;3.38;;;19.90;99.90;;;;;;4977064;28;20038;-68
2022/06/04 10:09:55;;;;;;;5.88;3.15;;;20.00;99.90;;;;;;4991532;28;20050;-68
2022/06/04 10:11:24;;;;;;;5.13;3.20;;;20.20;99.90;;;;;;4990129;28;20046;-68
2022/06/04 10:13:53;;;;;;;7.80;3.40;;;20.20;99.90;;;;;;4990000;28;20058;-68
2022/06/04 10:16:23;;;;;;;7.07;3.10;;;20.30;99.90;;;;;;4992777;28;20042;-68
2022/06/04 10:19:00;;;;;;;7.28;3.30;;;20.30;99.90;;;;;;4990665;28;20438;-68
2022/06/04 10:21:32;;;;;;;7.82;3.38;;;20.40;99.90;;;;;;4990667;28;20057;-68
2022/06/04 10:23:59;;;;;;;7.55;3.13;;;20.50;99.90;;;;;;4989987;28;20395;-68
2022/06/04 10:26:54;;;;;;;4.97;2.97;;;20.70;99.90;;;;;;4973867;28;20201;-68
2022/06/04 10:29:34;;;;;;;8.40;3.45;;;20.80;99.90;;;;;;4973672;28;20053;-68
2022/06/04 10:32:18;;;;;;;7.57;3.53;;;20.90;99.90;;;;;;5000156;28;20057;-69
2022/06/04 10:35:08;;;;;;;7.10;3.40;;;21.10;99.90;;;;;;5005796;28;20054;-69
2022/06/04 10:37:34;;;;;;;6.97;3.25;;;21.20;99.90;;;;;;4991107;28;20545;-69
2022/06/04 10:40:00;;;;;;;5.82;3.28;;;21.30;99.90;;;;;;4973981;28;20035;-70
2022/06/04 10:42:43;;;;;;;6.78;3.30;;;21.40;99.90;;;;;;4991396;28;20100;-67
2022/06/04 10:45:22;;;;;;;7.10;3.30;;;21.50;99.90;;;;;;4998107;28;20081;-70
2022/06/04 10:48:30;;;;;;;6.78;3.40;;;21.60;99.90;;;;;;4997372;28;20061;-69
2022/06/04 10:51:48;;;;;;;5.55;3.00;;;21.80;99.90;;;;;;4990050;28;20092;-68
2022/06/04 10:54:16;;;;;;;5.70;3.00;;;22.10;99.90;;;;;;4991065;28;20053;-67
2022/06/04 10:56:50;;;;;;;5.25;3.10;;;23.00;99.90;;;;;;4983162;28;20092;-67
2022/06/04 10:59:24;;;;;;;6.95;3.20;;;24.50;99.90;;;;;;5004158;28;20053;-68
2022/06/04 11:01:59;;;;;;;4.97;2.90;;;26.70;97.40;;;;;;4993883;28;20342;-68
2022/06/04 11:04:33;;;;;;;3.97;2.67;;;29.30;94.50;;;;;;5000913;28;20046;-68
2022/06/04 11:07:35;;;;;;;5.65;2.80;;;31.60;91.80;;;;;;4993407;28;20041;-68
2022/06/04 11:10:06;;;;;;;6.47;2.80;;;34.00;86.40;;;;;;4954723;28;20054;-68
2022/06/04 11:12:48;;;;;;;5.72;2.70;;;36.40;76.00;;;;;;4995702;28;20049;-69
2022/06/04 11:15:22;;;;;;;6.80;2.60;;;38.20;68.50;;;;;;5006395;28;20265;-69
2022/06/04 11:18:06;;;;;;;4.78;2.38;;;39.50;64.50;;;;;;4954080;28;20929;-70
2022/06/04 11:20:38;;;;;;;4.35;2.50;;;39.80;60.60;;;;;;4970981;28;20061;-69
2022/06/04 11:23:33;;;;;;;6.00;2.60;;;39.00;58.20;;;;;;4989976;28;20091;-70
2022/06/04 11:26:18;;;;;;;5.45;2.90;;;37.60;57.40;;;;;;4990635;28;20047;-69
2022/06/04 11:28:44;;;;;;;7.78;2.78;;;36.30;58.30;;;;;;5004140;28;20100;-69
2022/06/04 11:31:16;;;;;;;7.50;2.90;;;35.30;58.50;;;;;;5009064;28;20042;-70
2022/06/04 11:34:12;;;;;;;6.20;2.83;;;34.60;59.50;;;;;;5009552;28;20042;-70
2022/06/04 11:36:43;;;;;;;5.93;2.92;;;33.90;59.70;;;;;;5009683;28;20050;-67
2022/06/04 11:39:15;;;;;;;5.28;3.05;;;33.20;61.20;;;;;;5008635;28;20061;-68
2022/06/04 11:41:58;;;;;;;6.38;2.72;;;32.60;62.30;;;;;;5007427;28;20045;-68
2022/06/04 11:44:46;;;;;;;6.93;3.00;;;32.80;62.50;;;;;;4999475;28;20113;-69
2022/06/04 11:47:29;;;;;;;5.40;2.88;;;34.30;60.50;;;;;;5000968;28;20546;-69
2022/06/04 11:50:26;;;;;;;6.45;2.60;;;35.70;60.50;;;;;;5008980;28;20078;-69
2022/06/04 11:53:08;;;;;;;5.95;2.70;;;37.50;58.50;;;;;;4990221;28;20050;-69
2022/06/04 11:55:49;;;;;;;6.13;2.53;;;39.00;56.10;;;;;;4994724;28;20050;-69
2022/06/04 11:58:35;;;;;;;5.00;2.40;;;39.50;55.20;;;;;;4990105;28;20081;-69
2022/06/04 12:01:08;;;;;;;6.35;2.80;;;40.00;54.00;;;;;;4989456;28;20382;-70
2022/06/04 12:03:36;;;;;;;8.07;2.83;;;40.50;53.10;;;;;;4988887;28;20045;-69
2022/06/04 12:06:12;;;;;;;4.50;2.30;;;41.00;52.40;;;;;;4989528;28;20092;-69
2022/06/04 12:08:50;;;;;;;5.68;2.50;;;41.30;51.50;;;;;;4989674;28;20042;-69
2022/06/04 12:11:40;;;;;;;7.57;2.90;;;41.50;51.00;;;;;;4972069;28;20095;-69
2022/06/04 12:14:24;;;;;;;7.32;2.60;;;41.60;50.70;;;;;;4991047;28;20415;-69
2022/06/04 12:17:08;;;;;;;5.47;2.60;;;41.80;49.90;;;;;;4986750;28;20133;-69
2022/06/04 12:25:16;;;;;;;6.57;2.80;;;41.70;48.90;;;;;;4988650;28;20062;-68
2022/06/04 12:27:59;;;;;;;6.18;2.90;;;40.90;48.80;;;;;;4989133;28;20050;-67
2022/06/04 12:30:38;;;;;;;6.65;2.85;;;38.60;49.60;;;;;;4988290;28;20096;-68
2022/06/04 12:33:23;;;;;;;7.20;3.03;;;36.00;50.70;;;;;;4989233;28;20054;-68
2022/06/04 12:36:04;;;;;;;7.47;2.72;;;33.60;52.60;;;;;;4971430;28;20062;-68
2022/06/04 12:38:32;;;;;;;6.22;2.95;;;31.70;54.60;;;;;;4988319;28;20446;-68
2022/06/04 12:41:09;;;;;;;6.97;2.95;;;30.30;56.10;;;;;;4989548;28;20534;-69
2022/06/04 12:43:38;;;;;;;7.15;3.30;;;29.30;57.10;;;;;;4989454;28;20094;-68
2022/06/04 12:46:28;;;;;;;7.43;3.50;;;28.50;58.80;;;;;;4987668;28;20088;-69
2022/06/04 12:48:59;;;;;;;9.63;3.70;;;27.70;60.00;;;;;;4988722;28;20050;-68
2022/06/04 12:51:43;;;;;;;7.50;3.50;;;27.00;61.20;;;;;;4989341;28;20046;-68
2022/06/04 12:54:38;;;;;;;8.05;3.70;;;26.60;62.50;;;;;;4970696;28;20461;-71
2022/06/04 12:57:41;;;;;;;7.65;3.50;;;25.90;63.80;;;;;;4989276;28;20046;-68
2022/06/04 13:00:18;;;;;;;10.18;3.22;;;25.50;64.90;;;;;;4938326;28;20057;-69
2022/06/04 13:02:55;;;;;;;8.25;3.40;;;24.90;66.00;;;;;;4989870;28;20395;-68
2022/06/04 13:05:25;;;;;;;6.60;3.55;;;24.70;67.40;;;;;;4972053;28;20137;-69
2022/06/04 13:08:16;;;;;;;10.45;3.47;;;24.70;68.50;;;;;;4987920;28;20113;-70
2022/06/04 13:10:47;;;;;;;8.18;3.30;;;24.70;69.60;;;;;;4989057;28;20073;-69
2022/06/04 13:13:22;;;;;;;8.65;3.47;;;24.50;71.30;;;;;;4988588;28;20125;-69
2022/06/04 13:15:56;;;;;;;18.92;3.67;;;24.40;73.80;;;;;;4970121;28;20077;-69
2022/06/04 13:18:35;;;;;;;9.00;3.20;;;24.50;75.60;;;;;;4988864;28;20387;-69
2022/06/04 13:21:06;;;;;;;6.63;3.13;;;24.40;77.60;;;;;;4988372;28;20047;-68
2022/06/04 13:23:51;;;;;;;8.32;3.42;;;24.30;78.20;;;;;;4973107;28;20411;-69
2022/06/04 13:26:39;;;;;;;6.20;3.30;;;24.20;79.90;;;;;;4968313;28;20051;-69
2022/06/04 13:29:22;;;;;;;9.52;3.20;;;24.20;82.20;;;;;;4968147;28;20376;-69
2022/06/04 13:31:54;;;;;;;6.68;3.25;;;24.10;84.50;;;;;;4969116;28;20046;-69
2022/06/04 13:34:23;;;;;;;9.75;3.40;;;24.10;86.20;;;;;;4967095;28;20057;-69